sensor_id;sensor_type;location;lat;lon;timestamp;P1;durP1;ratioP1;P2;durP2;ratioP2
5912;SDS011;2982;42.684;23.356;2024-02-21T00:01:41;3.60;;;3.30;;
5912;SDS011;2982;42.684;23.356;2024-02-21T00:04:07;7.27;;;4.73;;
5912;SDS011;2982;42.684;23.356;2024-02-21T00:06:32;4.73;;;4.33;;
5912;SDS011;2982;42.684;23.356;2024-02-21T00:08:58;4.40;;;3.93;;
5912;SDS011;2982;42.684;23.356;2024-02-21T00:11:23;4.77;;;4.27;;
5912;SDS011;2982;42.684;23.356;2024-02-21T00:13:48;4.47;;;3.67;;
5912;SDS011;2982;42.684;23.356;2024-02-21T00:16:14;4.23;;;3.83;;
5912;SDS011;2982;42.684;23.356;2024-02-21T00:18:39;3.93;;;3.63;;
5912;SDS011;2982;42.684;23.356;2024-02-21T00:21:05;4.07;;;3.77;;
5912;SDS011;2982;42.684;23.356;2024-02-21T00:23:30;4.53;;;4.13;;
5912;SDS011;2982;42.684;23.356;2024-02-21T00:25:55;4.03;;;3.63;;
5912;SDS011;2982;42.684;23.356;2024-02-21T00:28:21;5.47;;;4.67;;
5912;SDS011;2982;42.684;23.356;2024-02-21T00:30:46;4.47;;;4.07;;
5912;SDS011;2982;42.684;23.356;2024-02-21T00:33:11;3.87;;;3.57;;
5912;SDS011;2982;42.684;23.356;2024-02-21T00:35:36;4.07;;;3.73;;
5912;SDS011;2982;42.684;23.356;2024-02-21T00:38:02;6.77;;;4.17;;
5912;SDS011;2982;42.684;23.356;2024-02-21T00:40:27;4.20;;;3.90;;
5912;SDS011;2982;42.684;23.356;2024-02-21T00:42:53;4.13;;;3.73;;
5912;SDS011;2982;42.684;23.356;2024-02-21T00:45:18;4.23;;;3.93;;
5912;SDS011;2982;42.684;23.356;2024-02-21T00:47:43;3.80;;;3.60;;
5912;SDS011;2982;42.684;23.356;2024-02-21T00:50:09;4.37;;;4.00;;
5912;SDS011;2982;42.684;23.356;2024-02-21T00:52:34;4.07;;;3.70;;
5912;SDS011;2982;42.684;23.356;2024-02-21T00:54:59;4.03;;;3.63;;
5912;SDS011;2982;42.684;23.356;2024-02-21T00:57:25;4.07;;;3.73;;
5912;SDS011;2982;42.684;23.356;2024-02-21T00:59:51;3.83;;;3.53;;
5912;SDS011;2982;42.684;23.356;2024-02-21T01:02:16;3.90;;;3.40;;
5912;SDS011;2982;42.684;23.356;2024-02-21T01:04:41;3.73;;;3.43;;
5912;SDS011;2982;42.684;23.356;2024-02-21T01:07:07;3.70;;;3.40;;
5912;SDS011;2982;42.684;23.356;2024-02-21T01:09:32;4.57;;;4.17;;
5912;SDS011;2982;42.684;23.356;2024-02-21T01:11:57;4.27;;;3.97;;
5912;SDS011;2982;42.684;23.356;2024-02-21T01:14:23;4.23;;;3.90;;
5912;SDS011;2982;42.684;23.356;2024-02-21T01:16:48;3.57;;;3.27;;
5912;SDS011;2982;42.684;23.356;2024-02-21T01:19:14;3.47;;;3.17;;
5912;SDS011;2982;42.684;23.356;2024-02-21T01:21:39;4.97;;;3.93;;
5912;SDS011;2982;42.684;23.356;2024-02-21T01:24:04;4.07;;;3.50;;
5912;SDS011;2982;42.684;23.356;2024-02-21T01:26:30;3.53;;;3.23;;
5912;SDS011;2982;42.684;23.356;2024-02-21T01:28:55;4.67;;;4.00;;
5912;SDS011;2982;42.684;23.356;2024-02-21T01:31:21;4.07;;;3.77;;
5912;SDS011;2982;42.684;23.356;2024-02-21T01:33:46;4.67;;;3.87;;
5912;SDS011;2982;42.684;23.356;2024-02-21T01:36:11;5.37;;;4.93;;
5912;SDS011;2982;42.684;23.356;2024-02-21T01:38:37;3.03;;;2.83;;
5912;SDS011;2982;42.684;23.356;2024-02-21T01:41:02;4.83;;;4.00;;
5912;SDS011;2982;42.684;23.356;2024-02-21T01:43:28;4.13;;;3.73;;
5912;SDS011;2982;42.684;23.356;2024-02-21T01:45:54;4.47;;;4.10;;
5912;SDS011;2982;42.684;23.356;2024-02-21T01:48:23;5.23;;;3.93;;
5912;SDS011;2982;42.684;23.356;2024-02-21T01:50:49;4.70;;;4.30;;
5912;SDS011;2982;42.684;23.356;2024-02-21T01:53:16;5.07;;;4.57;;
5912;SDS011;2982;42.684;23.356;2024-02-21T01:55:45;4.90;;;3.90;;
5912;SDS011;2982;42.684;23.356;2024-02-21T01:58:11;4.83;;;4.43;;
5912;SDS011;2982;42.684;23.356;2024-02-21T02:00:43;4.07;;;3.77;;
5912;SDS011;2982;42.684;23.356;2024-02-21T02:03:10;5.20;;;4.80;;
5912;SDS011;2982;42.684;23.356;2024-02-21T02:05:35;4.80;;;4.40;;
5912;SDS011;2982;42.684;23.356;2024-02-21T02:08:01;5.10;;;4.60;;
5912;SDS011;2982;42.684;23.356;2024-02-21T02:10:26;5.30;;;4.90;;
5912;SDS011;2982;42.684;23.356;2024-02-21T02:12:52;4.87;;;4.47;;
5912;SDS011;2982;42.684;23.356;2024-02-21T02:15:17;5.23;;;4.83;;
5912;SDS011;2982;42.684;23.356;2024-02-21T02:17:42;5.17;;;4.70;;
5912;SDS011;2982;42.684;23.356;2024-02-21T02:20:08;5.37;;;4.83;;
5912;SDS011;2982;42.684;23.356;2024-02-21T02:22:33;7.00;;;6.30;;
5912;SDS011;2982;42.684;23.356;2024-02-21T02:25:02;6.40;;;5.80;;
5912;SDS011;2982;42.684;23.356;2024-02-21T02:27:28;5.30;;;4.87;;
5912;SDS011;2982;42.684;23.356;2024-02-21T02:29:53;7.87;;;6.17;;
5912;SDS011;2982;42.684;23.356;2024-02-21T02:32:19;6.83;;;6.13;;
5912;SDS011;2982;42.684;23.356;2024-02-21T02:34:44;6.07;;;5.47;;
5912;SDS011;2982;42.684;23.356;2024-02-21T02:37:09;6.33;;;5.63;;
5912;SDS011;2982;42.684;23.356;2024-02-21T02:39:35;6.90;;;6.20;;
5912;SDS011;2982;42.684;23.356;2024-02-21T02:42:01;6.20;;;5.57;;
5912;SDS011;2982;42.684;23.356;2024-02-21T02:44:27;6.43;;;5.63;;
5912;SDS011;2982;42.684;23.356;2024-02-21T02:46:52;6.03;;;5.47;;
5912;SDS011;2982;42.684;23.356;2024-02-21T02:49:17;6.37;;;5.83;;
5912;SDS011;2982;42.684;23.356;2024-02-21T02:51:43;5.90;;;5.40;;
5912;SDS011;2982;42.684;23.356;2024-02-21T02:54:08;8.20;;;6.00;;
5912;SDS011;2982;42.684;23.356;2024-02-21T02:56:34;7.10;;;6.40;;
5912;SDS011;2982;42.684;23.356;2024-02-21T02:59:00;7.20;;;6.53;;
5912;SDS011;2982;42.684;23.356;2024-02-21T03:01:25;6.63;;;5.87;;
5912;SDS011;2982;42.684;23.356;2024-02-21T03:03:50;8.57;;;6.97;;
5912;SDS011;2982;42.684;23.356;2024-02-21T03:06:16;6.63;;;6.13;;
5912;SDS011;2982;42.684;23.356;2024-02-21T03:08:41;8.90;;;7.10;;
5912;SDS011;2982;42.684;23.356;2024-02-21T03:11:06;7.17;;;6.57;;
5912;SDS011;2982;42.684;23.356;2024-02-21T03:13:32;10.63;;;7.27;;
5912;SDS011;2982;42.684;23.356;2024-02-21T03:15:57;8.03;;;6.17;;
5912;SDS011;2982;42.684;23.356;2024-02-21T03:18:22;8.40;;;7.50;;
5912;SDS011;2982;42.684;23.356;2024-02-21T03:20:48;9.53;;;6.47;;
5912;SDS011;2982;42.684;23.356;2024-02-21T03:23:13;7.80;;;7.03;;
5912;SDS011;2982;42.684;23.356;2024-02-21T03:25:38;7.83;;;7.10;;
5912;SDS011;2982;42.684;23.356;2024-02-21T03:28:04;8.63;;;7.73;;
5912;SDS011;2982;42.684;23.356;2024-02-21T03:30:29;8.93;;;8.07;;
5912;SDS011;2982;42.684;23.356;2024-02-21T03:32:54;9.70;;;8.27;;
5912;SDS011;2982;42.684;23.356;2024-02-21T03:35:20;12.00;;;8.80;;
5912;SDS011;2982;42.684;23.356;2024-02-21T03:37:45;9.20;;;8.30;;
5912;SDS011;2982;42.684;23.356;2024-02-21T03:40:10;8.07;;;7.37;;
5912;SDS011;2982;42.684;23.356;2024-02-21T03:42:37;11.03;;;7.57;;
5912;SDS011;2982;42.684;23.356;2024-02-21T03:45:02;8.20;;;6.77;;
5912;SDS011;2982;42.684;23.356;2024-02-21T03:47:28;8.80;;;7.97;;
5912;SDS011;2982;42.684;23.356;2024-02-21T03:49:53;16.60;;;8.37;;
5912;SDS011;2982;42.684;23.356;2024-02-21T03:52:19;8.70;;;7.80;;
5912;SDS011;2982;42.684;23.356;2024-02-21T03:54:44;10.63;;;8.37;;
5912;SDS011;2982;42.684;23.356;2024-02-21T03:57:09;9.17;;;7.77;;
5912;SDS011;2982;42.684;23.356;2024-02-21T03:59:35;11.13;;;8.93;;
5912;SDS011;2982;42.684;23.356;2024-02-21T04:02:00;11.30;;;9.20;;
5912;SDS011;2982;42.684;23.356;2024-02-21T04:04:25;14.50;;;8.53;;
5912;SDS011;2982;42.684;23.356;2024-02-21T04:06:51;10.80;;;8.43;;
5912;SDS011;2982;42.684;23.356;2024-02-21T04:09:17;11.53;;;8.07;;
5912;SDS011;2982;42.684;23.356;2024-02-21T04:11:42;9.40;;;8.43;;
5912;SDS011;2982;42.684;23.356;2024-02-21T04:14:08;9.10;;;8.10;;
5912;SDS011;2982;42.684;23.356;2024-02-21T04:16:34;10.53;;;8.67;;
5912;SDS011;2982;42.684;23.356;2024-02-21T04:18:59;8.90;;;7.93;;
5912;SDS011;2982;42.684;23.356;2024-02-21T04:21:25;9.27;;;8.33;;
5912;SDS011;2982;42.684;23.356;2024-02-21T04:23:50;10.30;;;7.63;;
5912;SDS011;2982;42.684;23.356;2024-02-21T04:26:15;10.97;;;7.90;;
5912;SDS011;2982;42.684;23.356;2024-02-21T04:28:41;9.67;;;7.97;;
5912;SDS011;2982;42.684;23.356;2024-02-21T04:31:06;9.27;;;8.37;;
5912;SDS011;2982;42.684;23.356;2024-02-21T04:33:31;9.47;;;8.27;;
5912;SDS011;2982;42.684;23.356;2024-02-21T04:35:57;10.93;;;8.20;;
5912;SDS011;2982;42.684;23.356;2024-02-21T04:38:22;9.90;;;7.77;;
5912;SDS011;2982;42.684;23.356;2024-02-21T04:40:48;7.73;;;6.77;;
5912;SDS011;2982;42.684;23.356;2024-02-21T04:43:13;11.63;;;7.60;;
5912;SDS011;2982;42.684;23.356;2024-02-21T04:45:38;11.43;;;8.67;;
5912;SDS011;2982;42.684;23.356;2024-02-21T04:48:04;9.23;;;7.70;;
5912;SDS011;2982;42.684;23.356;2024-02-21T04:50:29;10.77;;;8.77;;
5912;SDS011;2982;42.684;23.356;2024-02-21T04:52:55;11.00;;;9.17;;
5912;SDS011;2982;42.684;23.356;2024-02-21T04:55:20;9.20;;;8.30;;
5912;SDS011;2982;42.684;23.356;2024-02-21T04:57:45;10.77;;;8.53;;
5912;SDS011;2982;42.684;23.356;2024-02-21T05:00:11;12.83;;;8.73;;
5912;SDS011;2982;42.684;23.356;2024-02-21T05:02:36;15.13;;;8.30;;
5912;SDS011;2982;42.684;23.356;2024-02-21T05:05:02;11.10;;;9.23;;
5912;SDS011;2982;42.684;23.356;2024-02-21T05:07:27;14.83;;;9.13;;
5912;SDS011;2982;42.684;23.356;2024-02-21T05:09:52;13.07;;;10.13;;
5912;SDS011;2982;42.684;23.356;2024-02-21T05:12:18;10.37;;;9.27;;
5912;SDS011;2982;42.684;23.356;2024-02-21T05:14:43;12.60;;;8.90;;
5912;SDS011;2982;42.684;23.356;2024-02-21T05:17:08;11.47;;;8.93;;
5912;SDS011;2982;42.684;23.356;2024-02-21T05:19:34;11.87;;;9.90;;
5912;SDS011;2982;42.684;23.356;2024-02-21T05:21:59;12.67;;;9.73;;
5912;SDS011;2982;42.684;23.356;2024-02-21T05:24:25;12.33;;;9.13;;
5912;SDS011;2982;42.684;23.356;2024-02-21T05:26:50;11.47;;;8.73;;
5912;SDS011;2982;42.684;23.356;2024-02-21T05:29:16;11.03;;;8.83;;
5912;SDS011;2982;42.684;23.356;2024-02-21T05:34:16;9.83;;;8.60;;
5912;SDS011;2982;42.684;23.356;2024-02-21T05:36:42;13.47;;;9.20;;
5912;SDS011;2982;42.684;23.356;2024-02-21T05:39:08;12.63;;;9.67;;
5912;SDS011;2982;42.684;23.356;2024-02-21T05:41:33;10.50;;;8.33;;
5912;SDS011;2982;42.684;23.356;2024-02-21T05:43:58;11.37;;;9.40;;
5912;SDS011;2982;42.684;23.356;2024-02-21T05:46:23;11.27;;;9.73;;
5912;SDS011;2982;42.684;23.356;2024-02-21T05:48:49;13.27;;;10.43;;
5912;SDS011;2982;42.684;23.356;2024-02-21T05:51:14;14.20;;;10.07;;
5912;SDS011;2982;42.684;23.356;2024-02-21T05:53:40;11.50;;;9.47;;
5912;SDS011;2982;42.684;23.356;2024-02-21T05:56:09;13.43;;;9.33;;
5912;SDS011;2982;42.684;23.356;2024-02-21T05:58:35;11.40;;;9.63;;
5912;SDS011;2982;42.684;23.356;2024-02-21T06:01:00;12.90;;;10.43;;
5912;SDS011;2982;42.684;23.356;2024-02-21T06:03:26;13.53;;;9.87;;
5912;SDS011;2982;42.684;23.356;2024-02-21T06:05:53;13.20;;;9.93;;
5912;SDS011;2982;42.684;23.356;2024-02-21T06:08:18;14.17;;;10.17;;
5912;SDS011;2982;42.684;23.356;2024-02-21T06:10:44;13.37;;;9.93;;
5912;SDS011;2982;42.684;23.356;2024-02-21T06:13:09;14.23;;;9.83;;
5912;SDS011;2982;42.684;23.356;2024-02-21T06:15:35;10.73;;;8.87;;
5912;SDS011;2982;42.684;23.356;2024-02-21T06:18:01;14.93;;;10.60;;
5912;SDS011;2982;42.684;23.356;2024-02-21T06:20:26;19.57;;;10.80;;
5912;SDS011;2982;42.684;23.356;2024-02-21T06:22:52;12.60;;;9.90;;
5912;SDS011;2982;42.684;23.356;2024-02-21T06:25:17;18.13;;;11.27;;
5912;SDS011;2982;42.684;23.356;2024-02-21T06:27:43;12.63;;;10.53;;
5912;SDS011;2982;42.684;23.356;2024-02-21T06:30:09;14.43;;;10.37;;
5912;SDS011;2982;42.684;23.356;2024-02-21T06:32:34;19.07;;;11.17;;
5912;SDS011;2982;42.684;23.356;2024-02-21T06:35:00;15.60;;;10.83;;
5912;SDS011;2982;42.684;23.356;2024-02-21T06:37:28;17.30;;;11.87;;
5912;SDS011;2982;42.684;23.356;2024-02-21T06:39:53;13.40;;;10.80;;
5912;SDS011;2982;42.684;23.356;2024-02-21T06:42:19;18.03;;;11.53;;
5912;SDS011;2982;42.684;23.356;2024-02-21T06:44:44;13.93;;;10.60;;
5912;SDS011;2982;42.684;23.356;2024-02-21T06:47:10;14.30;;;10.20;;
5912;SDS011;2982;42.684;23.356;2024-02-21T06:49:36;15.13;;;10.73;;
5912;SDS011;2982;42.684;23.356;2024-02-21T06:52:01;15.63;;;11.27;;
5912;SDS011;2982;42.684;23.356;2024-02-21T06:54:26;11.10;;;9.43;;
5912;SDS011;2982;42.684;23.356;2024-02-21T06:56:52;11.33;;;9.67;;
5912;SDS011;2982;42.684;23.356;2024-02-21T06:59:17;13.83;;;10.50;;
5912;SDS011;2982;42.684;23.356;2024-02-21T07:01:44;14.73;;;10.47;;
5912;SDS011;2982;42.684;23.356;2024-02-21T07:04:13;16.57;;;11.50;;
5912;SDS011;2982;42.684;23.356;2024-02-21T07:06:39;16.10;;;11.23;;
5912;SDS011;2982;42.684;23.356;2024-02-21T07:09:04;15.63;;;11.20;;
5912;SDS011;2982;42.684;23.356;2024-02-21T07:11:29;16.13;;;10.80;;
5912;SDS011;2982;42.684;23.356;2024-02-21T07:13:55;20.40;;;12.63;;
5912;SDS011;2982;42.684;23.356;2024-02-21T07:16:20;15.17;;;10.77;;
5912;SDS011;2982;42.684;23.356;2024-02-21T07:18:46;12.00;;;10.00;;
5912;SDS011;2982;42.684;23.356;2024-02-21T07:21:11;12.97;;;10.17;;
5912;SDS011;2982;42.684;23.356;2024-02-21T07:23:37;16.27;;;9.80;;
5912;SDS011;2982;42.684;23.356;2024-02-21T07:26:06;14.17;;;10.07;;
5912;SDS011;2982;42.684;23.356;2024-02-21T07:28:31;16.93;;;12.50;;
5912;SDS011;2982;42.684;23.356;2024-02-21T07:30:56;17.37;;;13.23;;
5912;SDS011;2982;42.684;23.356;2024-02-21T07:33:24;12.27;;;9.38;;
5912;SDS011;2982;42.684;23.356;2024-02-21T07:35:49;17.80;;;11.52;;
5912;SDS011;2982;42.684;23.356;2024-02-21T07:38:15;17.10;;;10.55;;
5912;SDS011;2982;42.684;23.356;2024-02-21T07:40:40;16.52;;;11.82;;
5912;SDS011;2982;42.684;23.356;2024-02-21T07:43:05;18.23;;;11.15;;
5912;SDS011;2982;42.684;23.356;2024-02-21T07:45:31;13.20;;;10.70;;
5912;SDS011;2982;42.684;23.356;2024-02-21T07:47:56;9.37;;;8.30;;
5912;SDS011;2982;42.684;23.356;2024-02-21T07:50:23;19.17;;;11.05;;
5912;SDS011;2982;42.684;23.356;2024-02-21T07:52:48;9.68;;;8.68;;
5912;SDS011;2982;42.684;23.356;2024-02-21T07:55:13;13.77;;;9.93;;
5912;SDS011;2982;42.684;23.356;2024-02-21T07:57:39;14.60;;;10.82;;
5912;SDS011;2982;42.684;23.356;2024-02-21T08:00:04;13.50;;;10.75;;
5912;SDS011;2982;42.684;23.356;2024-02-21T08:02:30;13.87;;;10.87;;
5912;SDS011;2982;42.684;23.356;2024-02-21T08:04:56;13.10;;;10.65;;
5912;SDS011;2982;42.684;23.356;2024-02-21T08:07:21;18.20;;;11.15;;
5912;SDS011;2982;42.684;23.356;2024-02-21T08:09:46;13.52;;;10.70;;
5912;SDS011;2982;42.684;23.356;2024-02-21T08:12:12;13.40;;;9.48;;
5912;SDS011;2982;42.684;23.356;2024-02-21T08:14:37;15.27;;;10.15;;
5912;SDS011;2982;42.684;23.356;2024-02-21T08:17:02;15.00;;;11.20;;
5912;SDS011;2982;42.684;23.356;2024-02-21T08:19:28;15.27;;;10.73;;
5912;SDS011;2982;42.684;23.356;2024-02-21T08:21:53;12.77;;;10.90;;
5912;SDS011;2982;42.684;23.356;2024-02-21T08:24:19;16.10;;;11.50;;
5912;SDS011;2982;42.684;23.356;2024-02-21T08:26:44;13.73;;;11.05;;
5912;SDS011;2982;42.684;23.356;2024-02-21T08:29:09;16.10;;;11.40;;
5912;SDS011;2982;42.684;23.356;2024-02-21T08:31:35;13.95;;;11.18;;
5912;SDS011;2982;42.684;23.356;2024-02-21T08:34:00;14.45;;;11.18;;
5912;SDS011;2982;42.684;23.356;2024-02-21T08:36:26;18.25;;;11.57;;
5912;SDS011;2982;42.684;23.356;2024-02-21T08:38:51;13.43;;;10.60;;
5912;SDS011;2982;42.684;23.356;2024-02-21T08:41:17;12.55;;;10.70;;
5912;SDS011;2982;42.684;23.356;2024-02-21T08:43:43;12.13;;;10.70;;
5912;SDS011;2982;42.684;23.356;2024-02-21T08:46:08;13.73;;;10.00;;
5912;SDS011;2982;42.684;23.356;2024-02-21T08:48:33;11.80;;;9.60;;
5912;SDS011;2982;42.684;23.356;2024-02-21T08:50:59;11.40;;;9.93;;
5912;SDS011;2982;42.684;23.356;2024-02-21T08:53:24;13.27;;;10.38;;
5912;SDS011;2982;42.684;23.356;2024-02-21T08:55:49;14.75;;;10.52;;
5912;SDS011;2982;42.684;23.356;2024-02-21T08:58:15;15.00;;;10.90;;
5912;SDS011;2982;42.684;23.356;2024-02-21T09:00:40;12.73;;;10.38;;
5912;SDS011;2982;42.684;23.356;2024-02-21T09:03:05;14.40;;;10.60;;
5912;SDS011;2982;42.684;23.356;2024-02-21T09:05:32;14.00;;;10.50;;
5912;SDS011;2982;42.684;23.356;2024-02-21T09:07:57;10.27;;;9.23;;
5912;SDS011;2982;42.684;23.356;2024-02-21T09:10:23;13.13;;;9.55;;
5912;SDS011;2982;42.684;23.356;2024-02-21T09:12:48;14.98;;;9.88;;
5912;SDS011;2982;42.684;23.356;2024-02-21T09:15:13;11.48;;;9.55;;
5912;SDS011;2982;42.684;23.356;2024-02-21T09:17:39;12.13;;;10.05;;
5912;SDS011;2982;42.684;23.356;2024-02-21T09:20:04;9.38;;;8.48;;
5912;SDS011;2982;42.684;23.356;2024-02-21T09:22:30;11.35;;;9.40;;
5912;SDS011;2982;42.684;23.356;2024-02-21T09:24:56;8.98;;;8.15;;
5912;SDS011;2982;42.684;23.356;2024-02-21T09:27:21;11.00;;;9.88;;
5912;SDS011;2982;42.684;23.356;2024-02-21T09:29:46;10.32;;;9.30;;
5912;SDS011;2982;42.684;23.356;2024-02-21T09:32:12;7.95;;;7.25;;
5912;SDS011;2982;42.684;23.356;2024-02-21T09:34:37;11.65;;;8.52;;
5912;SDS011;2982;42.684;23.356;2024-02-21T09:37:02;9.57;;;8.57;;
5912;SDS011;2982;42.684;23.356;2024-02-21T09:39:28;10.45;;;9.20;;
5912;SDS011;2982;42.684;23.356;2024-02-21T09:41:55;9.27;;;8.03;;
5912;SDS011;2982;42.684;23.356;2024-02-21T09:44:30;10.53;;;8.80;;
5912;SDS011;2982;42.684;23.356;2024-02-21T09:47:12;12.88;;;10.50;;
5912;SDS011;2982;42.684;23.356;2024-02-21T09:49:49;9.70;;;8.50;;
5912;SDS011;2982;42.684;23.356;2024-02-21T09:52:15;13.63;;;9.95;;
5912;SDS011;2982;42.684;23.356;2024-02-21T09:54:41;11.50;;;10.38;;
5912;SDS011;2982;42.684;23.356;2024-02-21T09:57:08;11.95;;;10.45;;
5912;SDS011;2982;42.684;23.356;2024-02-21T09:59:33;14.05;;;10.40;;
5912;SDS011;2982;42.684;23.356;2024-02-21T10:01:58;13.45;;;9.65;;
5912;SDS011;2982;42.684;23.356;2024-02-21T10:04:24;10.43;;;9.52;;
5912;SDS011;2982;42.684;23.356;2024-02-21T10:06:49;8.82;;;8.00;;
5912;SDS011;2982;42.684;23.356;2024-02-21T10:09:25;10.43;;;8.30;;
5912;SDS011;2982;42.684;23.356;2024-02-21T10:11:52;8.30;;;7.55;;
5912;SDS011;2982;42.684;23.356;2024-02-21T10:14:18;11.05;;;8.43;;
5912;SDS011;2982;42.684;23.356;2024-02-21T10:16:47;12.77;;;8.73;;
5912;SDS011;2982;42.684;23.356;2024-02-21T10:19:17;9.77;;;8.77;;
5912;SDS011;2982;42.684;23.356;2024-02-21T10:21:43;10.02;;;8.45;;
5912;SDS011;2982;42.684;23.356;2024-02-21T10:24:09;8.43;;;7.65;;
5912;SDS011;2982;42.684;23.356;2024-02-21T10:26:34;7.60;;;6.82;;
5912;SDS011;2982;42.684;23.356;2024-02-21T10:29:01;7.32;;;6.72;;
5912;SDS011;2982;42.684;23.356;2024-02-21T10:31:27;7.15;;;6.55;;
5912;SDS011;2982;42.684;23.356;2024-02-21T10:33:59;7.05;;;6.32;;
5912;SDS011;2982;42.684;23.356;2024-02-21T10:36:25;6.85;;;6.22;;
5912;SDS011;2982;42.684;23.356;2024-02-21T10:38:51;6.78;;;6.25;;
5912;SDS011;2982;42.684;23.356;2024-02-21T10:41:17;6.93;;;4.65;;
5912;SDS011;2982;42.684;23.356;2024-02-21T10:43:46;5.95;;;5.38;;
5912;SDS011;2982;42.684;23.356;2024-02-21T10:46:18;8.63;;;6.40;;
5912;SDS011;2982;42.684;23.356;2024-02-21T10:48:45;8.15;;;7.40;;
5912;SDS011;2982;42.684;23.356;2024-02-21T10:56:22;6.78;;;6.20;;
5912;SDS011;2982;42.684;23.356;2024-02-21T10:58:53;7.32;;;6.38;;
5912;SDS011;2982;42.684;23.356;2024-02-21T11:01:21;7.05;;;6.35;;
5912;SDS011;2982;42.684;23.356;2024-02-21T11:03:48;10.00;;;6.90;;
5912;SDS011;2982;42.684;23.356;2024-02-21T11:06:15;8.40;;;5.97;;
5912;SDS011;2982;42.684;23.356;2024-02-21T11:08:42;6.72;;;6.18;;
5912;SDS011;2982;42.684;23.356;2024-02-21T11:11:08;5.05;;;4.65;;
5912;SDS011;2982;42.684;23.356;2024-02-21T11:13:36;5.88;;;4.63;;
5912;SDS011;2982;42.684;23.356;2024-02-21T11:16:08;4.78;;;4.40;;
5912;SDS011;2982;42.684;23.356;2024-02-21T11:18:35;4.32;;;3.95;;
5912;SDS011;2982;42.684;23.356;2024-02-21T11:21:03;6.55;;;2.83;;
5912;SDS011;2982;42.684;23.356;2024-02-21T11:23:31;2.67;;;2.47;;
5912;SDS011;2982;42.684;23.356;2024-02-21T11:26:09;3.13;;;2.92;;
5912;SDS011;2982;42.684;23.356;2024-02-21T11:28:35;4.00;;;3.70;;
5912;SDS011;2982;42.684;23.356;2024-02-21T11:31:07;3.55;;;3.28;;
5912;SDS011;2982;42.684;23.356;2024-02-21T11:33:34;3.80;;;3.25;;
5912;SDS011;2982;42.684;23.356;2024-02-21T11:36:00;3.63;;;3.33;;
5912;SDS011;2982;42.684;23.356;2024-02-21T11:38:25;2.83;;;2.63;;
5912;SDS011;2982;42.684;23.356;2024-02-21T11:40:51;4.60;;;2.63;;
5912;SDS011;2982;42.684;23.356;2024-02-21T11:43:16;3.55;;;3.30;;
5912;SDS011;2982;42.684;23.356;2024-02-21T11:45:41;3.47;;;3.17;;
5912;SDS011;2982;42.684;23.356;2024-02-21T11:48:07;3.28;;;3.08;;
5912;SDS011;2982;42.684;23.356;2024-02-21T11:50:34;3.38;;;3.10;;
5912;SDS011;2982;42.684;23.356;2024-02-21T11:52:59;3.92;;;2.92;;
5912;SDS011;2982;42.684;23.356;2024-02-21T11:55:25;3.53;;;3.22;;
5912;SDS011;2982;42.684;23.356;2024-02-21T11:57:50;3.97;;;3.15;;
5912;SDS011;2982;42.684;23.356;2024-02-21T12:00:16;3.28;;;3.08;;
5912;SDS011;2982;42.684;23.356;2024-02-21T12:02:43;3.00;;;2.80;;
5912;SDS011;2982;42.684;23.356;2024-02-21T12:05:09;3.38;;;3.17;;
5912;SDS011;2982;42.684;23.356;2024-02-21T12:07:36;4.63;;;3.72;;
5912;SDS011;2982;42.684;23.356;2024-02-21T12:10:01;3.25;;;3.03;;
5912;SDS011;2982;42.684;23.356;2024-02-21T12:12:32;3.47;;;3.20;;
5912;SDS011;2982;42.684;23.356;2024-02-21T12:14:57;3.28;;;3.00;;
5912;SDS011;2982;42.684;23.356;2024-02-21T12:17:22;13.55;;;3.92;;
5912;SDS011;2982;42.684;23.356;2024-02-21T12:19:48;3.65;;;3.40;;
5912;SDS011;2982;42.684;23.356;2024-02-21T12:22:17;4.18;;;3.88;;
5912;SDS011;2982;42.684;23.356;2024-02-21T12:24:43;3.60;;;3.30;;
5912;SDS011;2982;42.684;23.356;2024-02-21T12:27:08;3.85;;;3.45;;
5912;SDS011;2982;42.684;23.356;2024-02-21T12:29:34;4.00;;;3.70;;
5912;SDS011;2982;42.684;23.356;2024-02-21T12:31:59;3.90;;;3.60;;
5912;SDS011;2982;42.684;23.356;2024-02-21T12:34:25;4.63;;;4.15;;
5912;SDS011;2982;42.684;23.356;2024-02-21T12:36:50;7.45;;;4.07;;
5912;SDS011;2982;42.684;23.356;2024-02-21T12:39:15;3.75;;;3.53;;
5912;SDS011;2982;42.684;23.356;2024-02-21T12:41:42;4.93;;;4.00;;
5912;SDS011;2982;42.684;23.356;2024-02-21T12:44:08;3.72;;;3.53;;
5912;SDS011;2982;42.684;23.356;2024-02-21T12:46:34;3.22;;;2.92;;
5912;SDS011;2982;42.684;23.356;2024-02-21T12:49:00;3.20;;;3.00;;
5912;SDS011;2982;42.684;23.356;2024-02-21T12:51:27;6.75;;;3.53;;
5912;SDS011;2982;42.684;23.356;2024-02-21T12:53:52;5.05;;;3.50;;
5912;SDS011;2982;42.684;23.356;2024-02-21T12:56:17;3.65;;;3.05;;
5912;SDS011;2982;42.684;23.356;2024-02-21T12:58:43;4.32;;;4.03;;
5912;SDS011;2982;42.684;23.356;2024-02-21T13:01:08;5.05;;;3.85;;
5912;SDS011;2982;42.684;23.356;2024-02-21T13:03:34;4.78;;;4.38;;
5912;SDS011;2982;42.684;23.356;2024-02-21T13:06:00;5.40;;;4.90;;
5912;SDS011;2982;42.684;23.356;2024-02-21T13:08:26;5.10;;;4.68;;
5912;SDS011;2982;42.684;23.356;2024-02-21T13:10:51;5.43;;;5.03;;
5912;SDS011;2982;42.684;23.356;2024-02-21T13:13:16;7.93;;;5.32;;
5912;SDS011;2982;42.684;23.356;2024-02-21T13:15:42;5.63;;;4.45;;
5912;SDS011;2982;42.684;23.356;2024-02-21T13:18:07;5.50;;;5.13;;
5912;SDS011;2982;42.684;23.356;2024-02-21T13:20:32;5.20;;;4.80;;
5912;SDS011;2982;42.684;23.356;2024-02-21T13:22:58;3.67;;;3.38;;
5912;SDS011;2982;42.684;23.356;2024-02-21T13:25:23;9.25;;;5.93;;
5912;SDS011;2982;42.684;23.356;2024-02-21T13:27:48;6.75;;;5.50;;
5912;SDS011;2982;42.684;23.356;2024-02-21T13:30:14;6.85;;;5.95;;
5912;SDS011;2982;42.684;23.356;2024-02-21T13:32:39;5.45;;;4.97;;
5912;SDS011;2982;42.684;23.356;2024-02-21T13:35:05;6.43;;;5.80;;
5912;SDS011;2982;42.684;23.356;2024-02-21T13:37:31;5.90;;;5.38;;
5912;SDS011;2982;42.684;23.356;2024-02-21T13:39:57;5.18;;;4.68;;
5912;SDS011;2982;42.684;23.356;2024-02-21T13:42:22;4.32;;;4.03;;
5912;SDS011;2982;42.684;23.356;2024-02-21T13:44:47;4.93;;;4.35;;
5912;SDS011;2982;42.684;23.356;2024-02-21T13:47:14;4.10;;;3.53;;
5912;SDS011;2982;42.684;23.356;2024-02-21T13:49:41;4.35;;;4.05;;
5912;SDS011;2982;42.684;23.356;2024-02-21T13:52:06;6.25;;;4.72;;
5912;SDS011;2982;42.684;23.356;2024-02-21T13:54:32;5.15;;;4.75;;
5912;SDS011;2982;42.684;23.356;2024-02-21T13:56:57;5.07;;;4.68;;
5912;SDS011;2982;42.684;23.356;2024-02-21T13:59:23;7.78;;;4.55;;
5912;SDS011;2982;42.684;23.356;2024-02-21T14:01:48;5.82;;;4.75;;
5912;SDS011;2982;42.684;23.356;2024-02-21T14:04:14;6.97;;;5.25;;
5912;SDS011;2982;42.684;23.356;2024-02-21T14:06:39;5.50;;;4.78;;
5912;SDS011;2982;42.684;23.356;2024-02-21T14:09:05;4.80;;;4.35;;
5912;SDS011;2982;42.684;23.356;2024-02-21T14:11:30;5.35;;;4.60;;
5912;SDS011;2982;42.684;23.356;2024-02-21T14:13:55;5.50;;;4.28;;
5912;SDS011;2982;42.684;23.356;2024-02-21T14:16:21;4.75;;;4.30;;
5912;SDS011;2982;42.684;23.356;2024-02-21T14:18:46;4.10;;;3.78;;
5912;SDS011;2982;42.684;23.356;2024-02-21T14:21:11;3.95;;;3.65;;
5912;SDS011;2982;42.684;23.356;2024-02-21T14:23:37;5.82;;;4.13;;
5912;SDS011;2982;42.684;23.356;2024-02-21T14:26:03;4.40;;;4.10;;
5912;SDS011;2982;42.684;23.356;2024-02-21T14:28:29;4.70;;;4.30;;
5912;SDS011;2982;42.684;23.356;2024-02-21T14:30:54;5.13;;;4.43;;
5912;SDS011;2982;42.684;23.356;2024-02-21T14:33:20;4.18;;;3.42;;
5912;SDS011;2982;42.684;23.356;2024-02-21T14:35:45;6.00;;;4.75;;
5912;SDS011;2982;42.684;23.356;2024-02-21T14:38:10;4.95;;;4.55;;
5912;SDS011;2982;42.684;23.356;2024-02-21T14:40:35;4.60;;;4.20;;
5912;SDS011;2982;42.684;23.356;2024-02-21T14:43:01;4.80;;;4.35;;
5912;SDS011;2982;42.684;23.356;2024-02-21T14:45:26;5.82;;;4.72;;
5912;SDS011;2982;42.684;23.356;2024-02-21T14:47:51;5.13;;;4.63;;
5912;SDS011;2982;42.684;23.356;2024-02-21T14:50:17;4.53;;;4.13;;
5912;SDS011;2982;42.684;23.356;2024-02-21T14:52:42;6.28;;;5.13;;